WZZ45ER EPKT-LDSP
Flight info
| Callsign | WZZ45ER |
|---|---|
| Flight time | 1h 19m |
| Altitude | 34000 |
| Route | TUSIN DCT UPLAV DCT KATQA DCT LEDVA DCT TISKO/N0454F350 DCT PETOV DCT NUPSO |
| Aircraft | A321/M-SDE3FGHIRWY/LB1 |
Departure
| Time | 2026-05-07 18:09 |
|---|---|
| Airport | Katowice Wojciech Korfanty International Airport (EPKT) |
Arrival
| Time | 2026-05-07 19:29 |
|---|---|
| Airport | Split Saint Jerome Airport (LDSP) |
| Time | Latitude | Longitude | Altitude | Speed | Heading |
|---|---|---|---|---|---|
| 2026-05-07 17:41 | 50.47169 | 19.06952 | 999 ft | 0 kts | 180° |
| 2026-05-07 17:56 | 50.47171 | 19.06952 | 998 ft | 2 kts | 180° |
| 2026-05-07 17:56 | 50.47188 | 19.06952 | 999 ft | 2 kts | 178° |
| 2026-05-07 17:56 | 50.47204 | 19.06951 | 998 ft | 2 kts | 174° |
| 2026-05-07 17:57 | 50.47221 | 19.06947 | 1001 ft | 2 kts | 159° |
| 2026-05-07 17:57 | 50.47231 | 19.06939 | 999 ft | 2 kts | 120° |
| 2026-05-07 17:57 | 50.47235 | 19.06918 | 998 ft | 1 kts | 90° |
| 2026-05-07 18:01 | 50.47235 | 19.06919 | 998 ft | 1 kts | 90° |
| 2026-05-07 18:01 | 50.47235 | 19.06951 | 1001 ft | 5 kts | 90° |
| 2026-05-07 18:02 | 50.47235 | 19.07175 | 1003 ft | 16 kts | 90° |
| 2026-05-07 18:02 | 50.47235 | 19.07357 | 1003 ft | 17 kts | 90° |
| 2026-05-07 18:02 | 50.47234 | 19.07534 | 998 ft | 16 kts | 90° |
| 2026-05-07 18:03 | 50.47234 | 19.07704 | 1001 ft | 15 kts | 90° |
| 2026-05-07 18:03 | 50.47233 | 19.07870 | 1001 ft | 16 kts | 90° |
| 2026-05-07 18:03 | 50.47233 | 19.08060 | 1003 ft | 18 kts | 90° |
| 2026-05-07 18:03 | 50.47233 | 19.08249 | 1003 ft | 17 kts | 90° |
| 2026-05-07 18:04 | 50.47232 | 19.08456 | 1004 ft | 21 kts | 90° |
| 2026-05-07 18:04 | 50.47232 | 19.08697 | 1004 ft | 23 kts | 90° |
| 2026-05-07 18:04 | 50.47231 | 19.08946 | 1002 ft | 22 kts | 90° |
| 2026-05-07 18:04 | 50.47231 | 19.09175 | 1001 ft | 20 kts | 90° |
| 2026-05-07 18:05 | 50.47230 | 19.09387 | 1004 ft | 19 kts | 90° |
| 2026-05-07 18:05 | 50.47230 | 19.09597 | 1004 ft | 18 kts | 90° |
| 2026-05-07 18:05 | 50.47229 | 19.09790 | 1001 ft | 17 kts | 90° |
| 2026-05-07 18:05 | 50.47231 | 19.09983 | 1004 ft | 19 kts | 81° |
| 2026-05-07 18:06 | 50.47300 | 19.10153 | 998 ft | 18 kts | 52° |
| 2026-05-07 18:06 | 50.47373 | 19.10300 | 1000 ft | 17 kts | 52° |
| 2026-05-07 18:06 | 50.47445 | 19.10427 | 1002 ft | 14 kts | 30° |
| 2026-05-07 18:06 | 50.47531 | 19.10447 | 998 ft | 12 kts | 359° |
| 2026-05-07 18:07 | 50.47592 | 19.10375 | 1002 ft | 11 kts | 287° |
| 2026-05-07 18:07 | 50.47594 | 19.10342 | 1000 ft | 0 kts | 271° |
| 2026-05-07 18:08 | 50.47596 | 19.10041 | 1001 ft | 63 kts | 271° |
| 2026-05-07 18:09 | 50.47597 | 19.09014 | 1001 ft | 124 kts | 270° |
| 2026-05-07 18:09 | 50.47599 | 19.07362 | 1027 ft | 173 kts | 272° |
| 2026-05-07 18:09 | 50.47604 | 19.05522 | 1763 ft | 167 kts | 273° |
| 2026-05-07 18:09 | 50.47611 | 19.03671 | 2460 ft | 171 kts | 273° |
| 2026-05-07 18:10 | 50.47616 | 19.01778 | 3082 ft | 178 kts | 272° |
| 2026-05-07 18:10 | 50.47620 | 18.99729 | 3330 ft | 198 kts | 272° |
| 2026-05-07 18:10 | 50.47622 | 18.97473 | 3471 ft | 215 kts | 271° |
| 2026-05-07 18:10 | 50.47290 | 18.95117 | 3624 ft | 234 kts | 243° |
| 2026-05-07 18:11 | 50.46102 | 18.93276 | 3937 ft | 250 kts | 208° |
| 2026-05-07 18:11 | 50.44409 | 18.92347 | 4383 ft | 264 kts | 200° |
| 2026-05-07 18:11 | 50.42669 | 18.91387 | 5113 ft | 266 kts | 202° |
| 2026-05-07 18:11 | 50.40936 | 18.90338 | 5895 ft | 267 kts | 203° |
| 2026-05-07 18:12 | 50.39207 | 18.89267 | 6664 ft | 268 kts | 204° |
| 2026-05-07 18:12 | 50.37472 | 18.88195 | 7383 ft | 269 kts | 203° |
| 2026-05-07 18:12 | 50.35720 | 18.87124 | 8110 ft | 271 kts | 203° |
| 2026-05-07 18:12 | 50.33958 | 18.86059 | 8836 ft | 273 kts | 202° |
| 2026-05-07 18:13 | 50.32177 | 18.84995 | 9570 ft | 274 kts | 202° |
| 2026-05-07 18:13 | 50.30378 | 18.83931 | 10172 ft | 281 kts | 202° |
| 2026-05-07 18:13 | 50.28474 | 18.82805 | 10324 ft | 303 kts | 202° |
| 2026-05-07 18:13 | 50.26427 | 18.81598 | 10460 ft | 324 kts | 202° |
| 2026-05-07 18:14 | 50.24307 | 18.80354 | 10898 ft | 333 kts | 202° |
| 2026-05-07 18:14 | 50.22126 | 18.79073 | 11503 ft | 336 kts | 202° |
| 2026-05-07 18:14 | 50.19927 | 18.77782 | 12133 ft | 339 kts | 201° |
| 2026-05-07 18:14 | 50.17711 | 18.76483 | 12778 ft | 342 kts | 201° |
| 2026-05-07 18:15 | 50.15476 | 18.75173 | 13422 ft | 344 kts | 201° |
| 2026-05-07 18:15 | 50.13224 | 18.73853 | 14035 ft | 347 kts | 201° |
| 2026-05-07 18:15 | 50.10952 | 18.72521 | 14606 ft | 350 kts | 201° |
| 2026-05-07 18:15 | 50.08660 | 18.71179 | 15198 ft | 352 kts | 201° |
| 2026-05-07 18:16 | 50.06358 | 18.69837 | 15779 ft | 354 kts | 201° |
| 2026-05-07 18:16 | 50.04042 | 18.68491 | 16351 ft | 357 kts | 201° |
| 2026-05-07 18:16 | 50.01732 | 18.67150 | 16913 ft | 360 kts | 201° |
| 2026-05-07 18:16 | 49.99375 | 18.65779 | 17477 ft | 363 kts | 201° |
| 2026-05-07 18:17 | 49.97004 | 18.64400 | 18049 ft | 365 kts | 201° |
| 2026-05-07 18:17 | 49.94616 | 18.63011 | 18570 ft | 368 kts | 201° |
| 2026-05-07 18:17 | 49.92215 | 18.61616 | 19090 ft | 369 kts | 201° |
| 2026-05-07 18:17 | 49.89805 | 18.60220 | 19638 ft | 370 kts | 201° |
| 2026-05-07 18:18 | 49.87404 | 18.58772 | 20194 ft | 371 kts | 205° |
| 2026-05-07 18:18 | 49.85176 | 18.56761 | 20750 ft | 372 kts | 215° |
| 2026-05-07 18:18 | 49.83238 | 18.54092 | 21279 ft | 375 kts | 225° |
| 2026-05-07 18:18 | 49.81601 | 18.50916 | 21793 ft | 378 kts | 230° |
| 2026-05-07 18:19 | 49.80008 | 18.47676 | 22302 ft | 379 kts | 230° |
| 2026-05-07 18:19 | 49.78408 | 18.44435 | 22795 ft | 380 kts | 229° |
| 2026-05-07 18:19 | 49.76796 | 18.41180 | 23300 ft | 381 kts | 229° |
| 2026-05-07 18:19 | 49.75182 | 18.37925 | 23744 ft | 382 kts | 229° |
| 2026-05-07 18:20 | 49.73583 | 18.34703 | 23926 ft | 383 kts | 229° |
| 2026-05-07 18:20 | 49.71959 | 18.31431 | 23972 ft | 382 kts | 229° |
| 2026-05-07 18:20 | 49.70342 | 18.28175 | 23977 ft | 382 kts | 229° |
| 2026-05-07 18:20 | 49.68714 | 18.24905 | 24236 ft | 385 kts | 229° |
| 2026-05-07 18:21 | 49.67075 | 18.21625 | 24623 ft | 386 kts | 229° |
| 2026-05-07 18:21 | 49.65432 | 18.18340 | 24991 ft | 388 kts | 229° |
| 2026-05-07 18:21 | 49.63775 | 18.15033 | 25365 ft | 390 kts | 228° |
| 2026-05-07 18:21 | 49.62109 | 18.11711 | 25715 ft | 392 kts | 228° |
| 2026-05-07 18:22 | 49.60436 | 18.08375 | 26067 ft | 394 kts | 228° |
| 2026-05-07 18:22 | 49.59326 | 18.06162 | 26298 ft | 395 kts | 228° |
| 2026-05-07 18:22 | 49.57069 | 18.01669 | 26757 ft | 398 kts | 228° |
| 2026-05-07 18:22 | 49.55370 | 17.98292 | 27092 ft | 399 kts | 228° |
| 2026-05-07 18:23 | 49.53663 | 17.94901 | 27436 ft | 401 kts | 228° |
| 2026-05-07 18:23 | 49.51949 | 17.91500 | 27774 ft | 403 kts | 228° |
| 2026-05-07 18:23 | 49.50248 | 17.88133 | 28085 ft | 405 kts | 228° |
| 2026-05-07 18:23 | 49.48512 | 17.84703 | 28413 ft | 407 kts | 228° |
| 2026-05-07 18:24 | 49.46771 | 17.81266 | 28724 ft | 408 kts | 228° |
| 2026-05-07 18:24 | 49.45017 | 17.77810 | 29038 ft | 410 kts | 228° |
| 2026-05-07 18:24 | 49.43253 | 17.74343 | 29368 ft | 412 kts | 228° |
| 2026-05-07 18:24 | 49.41483 | 17.70866 | 29684 ft | 414 kts | 228° |
| 2026-05-07 18:25 | 49.39706 | 17.67376 | 29996 ft | 416 kts | 228° |
| 2026-05-07 18:25 | 49.37919 | 17.63870 | 30261 ft | 417 kts | 228° |
| 2026-05-07 18:25 | 49.36129 | 17.60365 | 30606 ft | 416 kts | 228° |
| 2026-05-07 18:25 | 49.34345 | 17.56876 | 30960 ft | 416 kts | 228° |
| 2026-05-07 18:26 | 49.32420 | 17.53592 | 31275 ft | 412 kts | 220° |
| 2026-05-07 18:26 | 49.30225 | 17.50891 | 31578 ft | 410 kts | 212° |
| 2026-05-07 18:26 | 49.27810 | 17.48570 | 31870 ft | 410 kts | 211° |
| 2026-05-07 18:26 | 49.25387 | 17.46273 | 32180 ft | 410 kts | 211° |
| 2026-05-07 18:27 | 49.22960 | 17.43975 | 32472 ft | 410 kts | 211° |
| 2026-05-07 18:27 | 49.20532 | 17.41680 | 32756 ft | 411 kts | 211° |
| 2026-05-07 18:27 | 49.18100 | 17.39381 | 33044 ft | 411 kts | 211° |
| 2026-05-07 18:27 | 49.15673 | 17.37084 | 33327 ft | 411 kts | 211° |
| 2026-05-07 18:28 | 49.13237 | 17.34781 | 33608 ft | 412 kts | 211° |
| 2026-05-07 18:28 | 49.10797 | 17.32477 | 33861 ft | 413 kts | 211° |
| 2026-05-07 18:28 | 49.08355 | 17.30177 | 33951 ft | 411 kts | 211° |
| 2026-05-07 18:29 | 49.03532 | 17.25634 | 33969 ft | 406 kts | 213° |
| 2026-05-07 18:29 | 48.99292 | 17.19962 | 33970 ft | 407 kts | 225° |
| 2026-05-07 18:30 | 48.95339 | 17.13759 | 33972 ft | 409 kts | 225° |
| 2026-05-07 18:30 | 48.91361 | 17.07562 | 33970 ft | 409 kts | 225° |
| 2026-05-07 18:31 | 48.87404 | 17.01402 | 33969 ft | 410 kts | 225° |
| 2026-05-07 18:31 | 48.83410 | 16.95198 | 33975 ft | 410 kts | 225° |
| 2026-05-07 18:32 | 48.79413 | 16.89010 | 33977 ft | 411 kts | 225° |
| 2026-05-07 18:32 | 48.75389 | 16.82847 | 33982 ft | 411 kts | 221° |
| 2026-05-07 18:33 | 48.70588 | 16.78200 | 33986 ft | 413 kts | 203° |
| 2026-05-07 18:33 | 48.65065 | 16.75765 | 33985 ft | 415 kts | 197° |
| 2026-05-07 18:34 | 48.59523 | 16.73535 | 33985 ft | 415 kts | 197° |
| 2026-05-07 18:34 | 48.53935 | 16.71274 | 33988 ft | 415 kts | 198° |
| 2026-05-07 18:35 | 48.48353 | 16.69016 | 33998 ft | 415 kts | 198° |
| 2026-05-07 18:35 | 48.42775 | 16.66772 | 34004 ft | 415 kts | 198° |
| 2026-05-07 18:36 | 48.37190 | 16.64541 | 34018 ft | 415 kts | 198° |
| 2026-05-07 18:36 | 48.31612 | 16.62312 | 34027 ft | 415 kts | 198° |
| 2026-05-07 18:37 | 48.26073 | 16.60102 | 34036 ft | 414 kts | 198° |
| 2026-05-07 18:37 | 48.20501 | 16.57888 | 34043 ft | 414 kts | 198° |
| 2026-05-07 18:38 | 48.14935 | 16.55690 | 34037 ft | 413 kts | 198° |
| 2026-05-07 18:38 | 48.09373 | 16.53490 | 34050 ft | 413 kts | 198° |
| 2026-05-07 18:39 | 48.03812 | 16.51278 | 34040 ft | 413 kts | 198° |
| 2026-05-07 18:39 | 47.98293 | 16.49107 | 34041 ft | 413 kts | 198° |
| 2026-05-07 18:40 | 47.92746 | 16.46923 | 34034 ft | 412 kts | 198° |
| 2026-05-07 18:40 | 47.87201 | 16.44745 | 34031 ft | 412 kts | 198° |
| 2026-05-07 18:41 | 47.81652 | 16.42582 | 34039 ft | 412 kts | 198° |
| 2026-05-07 18:41 | 47.76116 | 16.40418 | 34041 ft | 411 kts | 199° |
| 2026-05-07 18:42 | 47.70583 | 16.38253 | 34042 ft | 411 kts | 199° |
| 2026-05-07 18:42 | 47.65055 | 16.36099 | 34046 ft | 411 kts | 199° |
| 2026-05-07 18:43 | 47.59564 | 16.33966 | 34043 ft | 410 kts | 199° |
| 2026-05-07 18:43 | 47.54044 | 16.31831 | 34047 ft | 410 kts | 199° |
| 2026-05-07 18:44 | 47.48531 | 16.29706 | 34048 ft | 409 kts | 199° |
| 2026-05-07 18:44 | 47.43026 | 16.27586 | 34050 ft | 408 kts | 199° |
| 2026-05-07 18:45 | 47.37532 | 16.25481 | 34054 ft | 407 kts | 199° |
| 2026-05-07 18:45 | 47.32052 | 16.23369 | 34054 ft | 406 kts | 199° |
| 2026-05-07 18:46 | 47.26591 | 16.21269 | 34052 ft | 406 kts | 199° |
| 2026-05-07 18:46 | 47.21117 | 16.19179 | 34049 ft | 405 kts | 199° |
| 2026-05-07 18:47 | 47.15698 | 16.17118 | 34043 ft | 405 kts | 199° |
| 2026-05-07 18:47 | 47.10250 | 16.15040 | 34035 ft | 404 kts | 199° |
| 2026-05-07 18:48 | 47.04797 | 16.12960 | 34031 ft | 405 kts | 199° |
| 2026-05-07 18:48 | 46.99348 | 16.10886 | 34019 ft | 405 kts | 199° |
| 2026-05-07 18:49 | 46.93888 | 16.08828 | 34014 ft | 405 kts | 199° |
| 2026-05-07 18:49 | 46.88448 | 16.06795 | 34008 ft | 406 kts | 199° |
| 2026-05-07 18:50 | 46.82969 | 16.04726 | 34003 ft | 407 kts | 199° |
| 2026-05-07 18:50 | 46.77477 | 16.02650 | 34004 ft | 408 kts | 199° |
| 2026-05-07 18:51 | 46.71971 | 16.00593 | 34002 ft | 409 kts | 199° |
| 2026-05-07 18:51 | 46.66343 | 15.99103 | 33996 ft | 418 kts | 188° |
| 2026-05-07 18:52 | 46.60511 | 15.98862 | 33991 ft | 419 kts | 188° |
| 2026-05-07 18:52 | 46.54681 | 15.98620 | 33985 ft | 419 kts | 188° |
| 2026-05-07 18:53 | 46.48884 | 15.98375 | 33987 ft | 420 kts | 188° |
| 2026-05-07 18:53 | 46.43034 | 15.98131 | 33979 ft | 420 kts | 188° |
| 2026-05-07 18:54 | 46.37192 | 15.97886 | 33992 ft | 420 kts | 188° |
| 2026-05-07 18:54 | 46.32331 | 15.97678 | 33996 ft | 421 kts | 188° |
| 2026-05-07 18:55 | 46.26480 | 15.97390 | 34003 ft | 421 kts | 189° |
| 2026-05-07 18:55 | 46.20632 | 15.97028 | 33997 ft | 420 kts | 189° |
| 2026-05-07 18:56 | 46.14779 | 15.96662 | 33998 ft | 420 kts | 189° |
| 2026-05-07 18:56 | 46.08928 | 15.96317 | 33998 ft | 421 kts | 188° |
| 2026-05-07 18:57 | 46.03120 | 15.95988 | 34002 ft | 421 kts | 188° |
| 2026-05-07 18:57 | 45.97253 | 15.95646 | 34007 ft | 421 kts | 188° |
| 2026-05-07 18:58 | 45.91398 | 15.95301 | 34003 ft | 421 kts | 188° |
| 2026-05-07 18:58 | 45.85547 | 15.94959 | 34002 ft | 421 kts | 188° |
| 2026-05-07 18:59 | 45.79696 | 15.94622 | 34004 ft | 421 kts | 188° |
| 2026-05-07 18:59 | 45.73840 | 15.94276 | 34005 ft | 421 kts | 188° |
| 2026-05-07 19:00 | 45.68020 | 15.93933 | 34004 ft | 421 kts | 188° |
| 2026-05-07 19:00 | 45.62154 | 15.93596 | 34005 ft | 421 kts | 188° |
| 2026-05-07 19:01 | 45.56298 | 15.93257 | 34006 ft | 421 kts | 188° |
| 2026-05-07 19:01 | 45.50443 | 15.92922 | 34018 ft | 421 kts | 188° |
| 2026-05-07 19:02 | 45.44632 | 15.92589 | 34007 ft | 421 kts | 188° |
| 2026-05-07 19:02 | 45.38776 | 15.92246 | 34019 ft | 421 kts | 188° |
| 2026-05-07 19:03 | 45.32921 | 15.91910 | 34020 ft | 421 kts | 188° |
| 2026-05-07 19:03 | 45.27070 | 15.91586 | 34022 ft | 420 kts | 188° |
| 2026-05-07 19:04 | 45.21222 | 15.91243 | 34034 ft | 421 kts | 189° |
| 2026-05-07 19:04 | 45.15405 | 15.90919 | 34034 ft | 421 kts | 188° |
| 2026-05-07 19:05 | 45.09553 | 15.90597 | 34037 ft | 421 kts | 189° |
| 2026-05-07 19:05 | 45.03686 | 15.90254 | 33286 ft | 424 kts | 189° |
| 2026-05-07 19:05 | 45.00742 | 15.90079 | 32662 ft | 423 kts | 189° |
| 2026-05-07 19:06 | 44.97798 | 15.89906 | 31956 ft | 425 kts | 189° |
| 2026-05-07 19:06 | 44.91843 | 15.89570 | 30454 ft | 431 kts | 188° |
| 2026-05-07 19:06 | 44.88836 | 15.89403 | 29630 ft | 434 kts | 188° |
| 2026-05-07 19:07 | 44.85814 | 15.89236 | 28838 ft | 435 kts | 188° |
| 2026-05-07 19:07 | 44.82807 | 15.89076 | 28285 ft | 430 kts | 188° |
| 2026-05-07 19:07 | 44.79831 | 15.88919 | 27735 ft | 426 kts | 188° |
| 2026-05-07 19:07 | 44.76881 | 15.88762 | 27143 ft | 422 kts | 188° |
| 2026-05-07 19:08 | 44.73964 | 15.88599 | 26604 ft | 418 kts | 188° |
| 2026-05-07 19:08 | 44.71074 | 15.88434 | 26060 ft | 414 kts | 188° |
| 2026-05-07 19:08 | 44.68211 | 15.88271 | 25522 ft | 410 kts | 188° |
| 2026-05-07 19:08 | 44.65372 | 15.88110 | 24973 ft | 405 kts | 188° |
| 2026-05-07 19:09 | 44.62574 | 15.87953 | 24444 ft | 402 kts | 188° |
| 2026-05-07 19:09 | 44.59783 | 15.87795 | 23949 ft | 398 kts | 188° |
| 2026-05-07 19:09 | 44.57056 | 15.87712 | 23411 ft | 397 kts | 185° |
| 2026-05-07 19:09 | 44.54305 | 15.87798 | 22830 ft | 395 kts | 183° |
| 2026-05-07 19:10 | 44.51557 | 15.87993 | 22273 ft | 393 kts | 182° |
| 2026-05-07 19:10 | 44.48837 | 15.88233 | 21730 ft | 391 kts | 181° |
| 2026-05-07 19:10 | 44.46123 | 15.88472 | 21184 ft | 389 kts | 181° |
| 2026-05-07 19:10 | 44.43432 | 15.88687 | 20709 ft | 386 kts | 181° |
| 2026-05-07 19:11 | 44.40754 | 15.88876 | 20247 ft | 383 kts | 182° |
| 2026-05-07 19:11 | 44.38100 | 15.89046 | 19772 ft | 381 kts | 182° |
| 2026-05-07 19:11 | 44.35455 | 15.89202 | 19299 ft | 379 kts | 182° |
| 2026-05-07 19:11 | 44.32867 | 15.89351 | 18819 ft | 377 kts | 182° |
| 2026-05-07 19:12 | 44.30253 | 15.89503 | 18358 ft | 375 kts | 181° |
| 2026-05-07 19:12 | 44.27655 | 15.89656 | 17825 ft | 373 kts | 181° |
| 2026-05-07 19:12 | 44.25078 | 15.89807 | 17255 ft | 370 kts | 181° |
| 2026-05-07 19:12 | 44.22518 | 15.89961 | 16755 ft | 367 kts | 181° |
| 2026-05-07 19:13 | 44.19978 | 15.90118 | 16247 ft | 364 kts | 181° |
| 2026-05-07 19:13 | 44.17461 | 15.90272 | 15760 ft | 361 kts | 181° |
| 2026-05-07 19:13 | 44.14965 | 15.90425 | 15259 ft | 358 kts | 181° |
| 2026-05-07 19:13 | 44.12482 | 15.90578 | 14775 ft | 356 kts | 181° |
| 2026-05-07 19:14 | 44.10021 | 15.90733 | 14299 ft | 353 kts | 181° |
| 2026-05-07 19:14 | 44.07576 | 15.90880 | 13818 ft | 350 kts | 181° |
| 2026-05-07 19:14 | 44.05148 | 15.91025 | 13252 ft | 348 kts | 181° |
| 2026-05-07 19:14 | 44.02738 | 15.91170 | 12711 ft | 346 kts | 181° |
| 2026-05-07 19:15 | 44.00344 | 15.91313 | 12183 ft | 343 kts | 180° |
| 2026-05-07 19:15 | 43.97964 | 15.91456 | 11663 ft | 341 kts | 180° |
| 2026-05-07 19:15 | 43.95633 | 15.91596 | 11164 ft | 339 kts | 180° |
| 2026-05-07 19:15 | 43.93286 | 15.91736 | 10672 ft | 336 kts | 180° |
| 2026-05-07 19:16 | 43.90954 | 15.91874 | 10186 ft | 335 kts | 180° |
| 2026-05-07 19:16 | 43.88647 | 15.92012 | 9887 ft | 326 kts | 180° |
| 2026-05-07 19:16 | 43.86424 | 15.92152 | 9741 ft | 313 kts | 180° |
| 2026-05-07 19:16 | 43.84290 | 15.92289 | 9602 ft | 301 kts | 180° |
| 2026-05-07 19:17 | 43.82237 | 15.92416 | 9469 ft | 290 kts | 180° |
| 2026-05-07 19:17 | 43.80251 | 15.92536 | 9327 ft | 281 kts | 180° |
| 2026-05-07 19:17 | 43.78289 | 15.92652 | 8942 ft | 282 kts | 180° |
| 2026-05-07 19:17 | 43.76345 | 15.92762 | 8498 ft | 278 kts | 180° |
| 2026-05-07 19:18 | 43.74427 | 15.92873 | 8068 ft | 275 kts | 180° |
| 2026-05-07 19:18 | 43.72551 | 15.92985 | 7737 ft | 272 kts | 180° |
| 2026-05-07 19:18 | 43.70657 | 15.93099 | 7464 ft | 272 kts | 180° |
| 2026-05-07 19:18 | 43.68771 | 15.93212 | 7191 ft | 270 kts | 180° |
| 2026-05-07 19:19 | 43.66898 | 15.93324 | 6868 ft | 270 kts | 179° |
| 2026-05-07 19:19 | 43.65016 | 15.93433 | 6475 ft | 271 kts | 179° |
| 2026-05-07 19:19 | 43.63136 | 15.93545 | 6076 ft | 271 kts | 179° |
| 2026-05-07 19:19 | 43.61250 | 15.93657 | 5672 ft | 271 kts | 179° |
| 2026-05-07 19:20 | 43.59363 | 15.93772 | 5270 ft | 272 kts | 178° |
| 2026-05-07 19:20 | 43.57472 | 15.93886 | 4951 ft | 270 kts | 178° |
| 2026-05-07 19:20 | 43.55629 | 15.93998 | 4738 ft | 261 kts | 178° |
| 2026-05-07 19:20 | 43.53814 | 15.94108 | 4538 ft | 259 kts | 178° |
| 2026-05-07 19:21 | 43.52017 | 15.94213 | 4332 ft | 258 kts | 179° |
| 2026-05-07 19:21 | 43.50241 | 15.93995 | 4180 ft | 256 kts | 192° |
| 2026-05-07 19:21 | 43.48561 | 15.93201 | 4041 ft | 257 kts | 205° |
| 2026-05-07 19:21 | 43.46940 | 15.92307 | 3919 ft | 250 kts | 187° |
| 2026-05-07 19:22 | 43.45266 | 15.92529 | 3799 ft | 239 kts | 160° |
| 2026-05-07 19:22 | 43.43878 | 15.93638 | 3692 ft | 225 kts | 139° |
| 2026-05-07 19:22 | 43.42928 | 15.95265 | 3558 ft | 214 kts | 120° |
| 2026-05-07 19:22 | 43.42270 | 15.97044 | 3430 ft | 203 kts | 120° |
| 2026-05-07 19:23 | 43.41640 | 15.98722 | 3303 ft | 196 kts | 120° |
| 2026-05-07 19:23 | 43.41001 | 16.00407 | 3185 ft | 199 kts | 120° |
| 2026-05-07 19:23 | 43.40365 | 16.02095 | 3063 ft | 199 kts | 117° |
| 2026-05-07 19:23 | 43.40067 | 16.03949 | 2943 ft | 203 kts | 90° |
| 2026-05-07 19:24 | 43.40487 | 16.05796 | 2870 ft | 203 kts | 61° |
| 2026-05-07 19:24 | 43.41321 | 16.07298 | 2788 ft | 192 kts | 56° |
| 2026-05-07 19:24 | 43.42131 | 16.08742 | 2791 ft | 190 kts | 57° |
| 2026-05-07 19:24 | 43.42934 | 16.10176 | 2797 ft | 189 kts | 57° |
| 2026-05-07 19:25 | 43.43731 | 16.11599 | 2803 ft | 187 kts | 57° |
| 2026-05-07 19:25 | 43.44528 | 16.13022 | 2788 ft | 188 kts | 57° |
| 2026-05-07 19:25 | 43.45324 | 16.14444 | 2618 ft | 187 kts | 56° |
| 2026-05-07 19:25 | 43.46092 | 16.15813 | 2404 ft | 174 kts | 58° |
| 2026-05-07 19:26 | 43.46799 | 16.17076 | 2184 ft | 165 kts | 57° |
| 2026-05-07 19:26 | 43.47483 | 16.18299 | 1985 ft | 159 kts | 57° |
| 2026-05-07 19:26 | 43.48147 | 16.19486 | 1758 ft | 149 kts | 58° |
| 2026-05-07 19:26 | 43.48764 | 16.20590 | 1559 ft | 143 kts | 59° |
| 2026-05-07 19:27 | 43.49364 | 16.21667 | 1366 ft | 141 kts | 57° |
| 2026-05-07 19:27 | 43.49960 | 16.22735 | 1185 ft | 141 kts | 57° |
| 2026-05-07 19:27 | 43.50556 | 16.23805 | 981 ft | 140 kts | 54° |
| 2026-05-07 19:27 | 43.51152 | 16.24875 | 782 ft | 140 kts | 52° |
| 2026-05-07 19:28 | 43.51750 | 16.25939 | 585 ft | 141 kts | 51° |
| 2026-05-07 19:28 | 43.52333 | 16.27019 | 403 ft | 141 kts | 51° |
| 2026-05-07 19:28 | 43.52942 | 16.28073 | 211 ft | 140 kts | 50° |
| 2026-05-07 19:28 | 43.53516 | 16.29108 | 88 ft | 129 kts | 52° |
| 2026-05-07 19:29 | 43.53958 | 16.29909 | 71 ft | 63 kts | 53° |
| 2026-05-07 19:29 | 43.54062 | 16.30109 | 72 ft | 5 kts | 75° |
| 2026-05-07 19:29 | 43.54045 | 16.30116 | 67 ft | 6 kts | 187° |
| 2026-05-07 19:29 | 43.53993 | 16.30096 | 67 ft | 2 kts | 197° |
| 2026-05-07 19:30 | 43.53957 | 16.30080 | 64 ft | 9 kts | 198° |
| 2026-05-07 19:30 | 43.53892 | 16.30038 | 61 ft | 11 kts | 220° |
| 2026-05-07 19:30 | 43.53877 | 16.30013 | 61 ft | 0 kts | 232° |
| 2026-05-07 19:30 | 43.53868 | 16.29997 | 63 ft | 8 kts | 233° |
| 2026-05-07 19:31 | 43.53825 | 16.29917 | 61 ft | 11 kts | 233° |
| 2026-05-07 19:31 | 43.53797 | 16.29865 | 64 ft | 2 kts | 233° |
| 2026-05-07 19:31 | 43.53788 | 16.29849 | 62 ft | 4 kts | 233° |
| 2026-05-07 19:31 | 43.53766 | 16.29809 | 63 ft | 5 kts | 232° |
| 2026-05-07 19:32 | 43.53752 | 16.29808 | 64 ft | 2 kts | 167° |
| 2026-05-07 19:32 | 43.53729 | 16.29841 | 64 ft | 5 kts | 116° |
| 2026-05-07 19:32 | 43.53727 | 16.29851 | 66 ft | 1 kts | 107° |
| 2026-05-07 19:32 | 43.53723 | 16.29868 | 66 ft | 1 kts | 105° |
| 2026-05-07 19:33 | 43.53723 | 16.29869 | 66 ft | 0 kts | 105° |